Lorraine, Kansas
Current Conditions -  °F | °C
As of 4:15 PM on Thursday 23 Oct 2014 (Local Time) from KGBD Reporting Station
Broken Clouds Broken Clouds  
Wind Chill: 23°   Ceiling: 3300
Heat Index: 23°   Visibility: 10mi
Dew Point: 14°   Wind: 6mph
Humidity: 57%   Direction: 190°S
Pressure: 30.04"   Gusts: NA
Location:  38.57°N, 98.32°W
Report Text: KGBD 232115Z AUTO 19005KT 10SM BKN033 23/14 A3004 RMK AO1
Loading
Personal Weather Stations






























Interactive Weather Map
Tropical Storm Tracking
New forecast layout! Learn more

10-Day Weather Forecast

Advertisements
Track Severe Weather on mobile